createdAt,value
2023-03-22T00:01:28.242Z,110.60
2023-03-22T00:03:55.171Z,109.10
2023-03-22T00:06:22.368Z,107.00
2023-03-22T00:08:53.909Z,114.40
2023-03-22T00:11:24.376Z,107.00
2023-03-22T00:13:52.762Z,115.80
2023-03-22T00:16:21.314Z,121.00
2023-03-22T00:18:48.290Z,126.80
2023-03-22T00:21:17.263Z,117.30
2023-03-22T00:23:45.255Z,124.80
2023-03-22T00:26:14.332Z,122.60
2023-03-22T00:28:42.482Z,108.30
2023-03-22T00:31:11.010Z,108.20
2023-03-22T00:33:40.852Z,116.60
2023-03-22T00:38:44.042Z,111.80
2023-03-22T00:41:19.852Z,105.50
2023-03-22T00:43:48.186Z,99.50
2023-03-22T00:46:17.470Z,88.00
2023-03-22T00:48:44.464Z,82.40
2023-03-22T00:51:12.102Z,90.40
2023-03-22T00:53:41.992Z,92.00
2023-03-22T00:56:14.171Z,90.00
2023-03-22T00:59:01.557Z,89.50
2023-03-22T01:01:29.220Z,85.10
2023-03-22T01:03:56.124Z,88.40
2023-03-22T01:06:23.218Z,102.10
2023-03-22T01:08:51.127Z,94.60
2023-03-22T01:11:18.441Z,92.50
2023-03-22T01:13:45.765Z,104.40
2023-03-22T01:16:12.727Z,95.90
2023-03-22T01:18:40.899Z,107.80
2023-03-22T01:21:09.094Z,106.20
2023-03-22T01:23:36.458Z,113.20
2023-03-22T01:26:04.406Z,119.70
2023-03-22T01:28:31.534Z,132.20
2023-03-22T01:31:02.685Z,131.50
2023-03-22T01:33:31.232Z,133.30
2023-03-22T01:35:58.254Z,126.40
2023-03-22T01:38:25.442Z,120.50
2023-03-22T01:40:58.136Z,115.50
2023-03-22T01:43:25.634Z,106.50
2023-03-22T01:45:54.225Z,109.70
2023-03-22T01:48:34.390Z,114.20
2023-03-22T01:51:07.995Z,110.70
2023-03-22T01:54:05.942Z,107.10
2023-03-22T01:56:36.610Z,102.50
2023-03-22T01:59:07.904Z,110.70
2023-03-22T02:01:49.716Z,104.90
2023-03-22T02:04:20.349Z,104.80
2023-03-22T02:06:48.504Z,106.80
2023-03-22T02:11:57.739Z,97.00
2023-03-22T02:14:53.612Z,102.50
2023-03-22T02:17:46.590Z,103.60
2023-03-22T02:20:38.866Z,105.10
2023-03-22T02:23:30.964Z,110.70
2023-03-22T02:26:05.547Z,108.40
2023-03-22T02:28:45.823Z,97.80
2023-03-22T02:31:17.933Z,99.30
2023-03-22T02:34:15.753Z,91.70
2023-03-22T02:36:46.127Z,102.00
2023-03-22T02:39:22.551Z,94.00
2023-03-22T02:41:56.251Z,100.30
2023-03-22T02:44:27.156Z,99.60
2023-03-22T02:47:04.284Z,102.50
2023-03-22T02:49:41.376Z,97.00
2023-03-22T02:52:17.705Z,101.90
2023-03-22T02:55:00.238Z,97.00
2023-03-22T02:57:48.593Z,90.20
2023-03-22T03:00:18.928Z,93.90
2023-03-22T03:05:18.340Z,101.00
2023-03-22T03:07:52.468Z,107.70
2023-03-22T03:10:21.394Z,94.90
2023-03-22T03:12:48.431Z,99.30
2023-03-22T03:15:18.802Z,103.20
2023-03-22T03:18:01.497Z,123.90
2023-03-22T03:20:49.641Z,94.30
2023-03-22T03:23:28.797Z,101.70
2023-03-22T03:26:09.583Z,92.90
2023-03-22T03:28:51.154Z,91.80
2023-03-22T03:31:30.243Z,86.40
2023-03-22T03:34:00.518Z,83.10
2023-03-22T03:36:29.658Z,86.10
2023-03-22T03:38:58.548Z,81.50
2023-03-22T03:41:29.594Z,81.80
2023-03-22T03:43:58.695Z,79.70
2023-03-22T03:46:26.338Z,77.90
2023-03-22T03:48:57.568Z,69.80
2023-03-22T03:51:27.793Z,75.40
2023-03-22T03:55:33.963Z,72.40
2023-03-22T03:58:00.908Z,70.60
2023-03-22T04:00:27.804Z,62.90
2023-03-22T04:03:21.024Z,69.10
2023-03-22T04:06:19.909Z,68.90
2023-03-22T04:08:53.681Z,63.20
2023-03-22T04:11:24.001Z,74.30
2023-03-22T04:13:52.603Z,70.70
2023-03-22T04:16:21.178Z,66.60
2023-03-22T04:18:48.887Z,67.70
2023-03-22T04:21:16.670Z,60.00
2023-03-22T04:23:52.288Z,61.00
2023-03-22T04:26:19.152Z,60.50
2023-03-22T04:28:54.338Z,56.10
2023-03-22T04:31:21.321Z,56.40
2023-03-22T04:33:55.975Z,58.20
2023-03-22T04:36:39.732Z,54.30
2023-03-22T04:39:21.677Z,62.90
2023-03-22T04:41:56.852Z,54.70
2023-03-22T04:44:23.890Z,51.90
2023-03-22T04:46:50.888Z,50.70
2023-03-22T04:49:18.006Z,38.90
2023-03-22T04:51:44.860Z,36.90
2023-03-22T04:54:23.654Z,33.70
2023-03-22T04:56:51.268Z,39.30
2023-03-22T04:59:20.486Z,39.40
2023-03-22T05:01:48.908Z,40.70
2023-03-22T05:04:19.664Z,38.70
2023-03-22T05:06:47.172Z,39.40
2023-03-22T05:09:23.336Z,39.40
2023-03-22T05:11:51.308Z,32.70
2023-03-22T05:14:28.361Z,36.20
2023-03-22T05:16:55.714Z,33.60
2023-03-22T05:19:24.699Z,30.10
2023-03-22T05:21:58.302Z,34.20
2023-03-22T05:24:33.815Z,29.40
2023-03-22T05:27:01.270Z,27.90
2023-03-22T05:29:28.856Z,42.80
2023-03-22T05:32:06.565Z,44.30
2023-03-22T05:34:36.077Z,45.40
2023-03-22T05:37:22.454Z,36.60
2023-03-22T05:39:53.117Z,33.40
2023-03-22T05:42:20.891Z,35.50
2023-03-22T05:44:47.848Z,34.60
2023-03-22T05:47:14.820Z,33.10
2023-03-22T05:49:53.720Z,30.40
2023-03-22T05:52:22.398Z,34.80
2023-03-22T05:57:41.480Z,33.90
2023-03-22T06:00:16.434Z,33.60
2023-03-22T06:03:03.541Z,31.00
2023-03-22T06:05:32.531Z,33.70
2023-03-22T06:07:59.962Z,35.40
2023-03-22T06:10:29.454Z,35.10
2023-03-22T06:12:56.509Z,37.80
2023-03-22T06:15:29.145Z,41.50
2023-03-22T06:20:27.504Z,40.70
2023-03-22T06:22:59.774Z,35.80
2023-03-22T06:25:27.168Z,36.50
2023-03-22T06:27:55.142Z,33.20
2023-03-22T06:30:22.605Z,34.40
2023-03-22T06:33:18.770Z,32.50
2023-03-22T06:38:20.404Z,33.70
2023-03-22T06:40:47.525Z,32.20
2023-03-22T06:43:14.405Z,29.80
2023-03-22T06:45:43.660Z,30.40
2023-03-22T06:48:11.658Z,29.00
2023-03-22T06:51:08.297Z,27.10
2023-03-22T06:53:36.719Z,26.70
2023-03-22T06:56:04.598Z,26.50
2023-03-22T06:58:41.798Z,26.90
2023-03-22T07:01:08.753Z,24.70
2023-03-22T07:03:36.384Z,24.70
2023-03-22T07:06:08.950Z,22.50
2023-03-22T07:08:38.641Z,22.10
2023-03-22T07:11:06.837Z,20.40
2023-03-22T07:13:33.969Z,20.40
2023-03-22T07:21:10.656Z,20.80
2023-03-22T07:23:38.758Z,20.80
2023-03-22T07:26:09.555Z,20.10
2023-03-22T07:28:41.627Z,19.50
2023-03-22T07:31:11.769Z,20.20
2023-03-22T07:34:00.380Z,19.50
2023-03-22T07:36:32.809Z,18.60
2023-03-22T07:38:59.873Z,17.70
2023-03-22T07:41:32.946Z,17.30
2023-03-22T07:47:30.592Z,16.30
2023-03-22T07:50:27.930Z,15.90
2023-03-22T07:52:56.353Z,15.40
2023-03-22T07:55:23.474Z,15.60
2023-03-22T07:57:51.484Z,17.00
2023-03-22T08:00:18.838Z,15.20
2023-03-22T08:02:52.386Z,14.90
2023-03-22T08:05:42.220Z,14.20
2023-03-22T08:08:13.740Z,13.60
2023-03-22T08:10:41.132Z,12.50
2023-03-22T08:13:08.177Z,11.20
2023-03-22T08:15:37.625Z,10.80
2023-03-22T08:20:34.780Z,7.10
2023-03-22T08:23:05.847Z,8.60
2023-03-22T08:25:53.134Z,7.30
2023-03-22T08:28:20.456Z,6.00
2023-03-22T08:30:49.226Z,6.00
2023-03-22T08:33:16.549Z,6.60
2023-03-22T08:35:45.503Z,6.60
2023-03-22T08:38:12.651Z,6.20
2023-03-22T08:40:47.981Z,6.90
2023-03-22T08:43:20.752Z,6.20
2023-03-22T08:45:47.818Z,7.00
2023-03-22T08:48:16.490Z,6.90
2023-03-22T08:50:57.741Z,6.90
2023-03-22T08:53:30.945Z,6.80
2023-03-22T08:56:15.010Z,7.00
2023-03-22T08:58:50.089Z,6.30
2023-03-22T09:01:37.461Z,7.30
2023-03-22T09:04:07.093Z,7.70
2023-03-22T09:06:35.815Z,7.00
2023-03-22T09:09:03.627Z,8.30
2023-03-22T09:11:31.364Z,7.00
2023-03-22T09:13:58.220Z,6.50
2023-03-22T09:16:25.123Z,7.90
2023-03-22T09:18:52.056Z,7.70
2023-03-22T09:21:22.192Z,7.00
2023-03-22T09:23:56.862Z,7.10
2023-03-22T09:26:30.054Z,7.20
2023-03-22T09:28:57.063Z,7.00
2023-03-22T09:31:24.052Z,7.40
2023-03-22T09:34:01.017Z,7.70
2023-03-22T09:36:27.980Z,8.50
2023-03-22T09:38:54.887Z,8.10
2023-03-22T09:41:27.824Z,7.60
2023-03-22T09:43:59.852Z,8.70
2023-03-22T09:46:34.529Z,8.70
2023-03-22T09:49:06.281Z,7.70
2023-03-22T09:51:42.630Z,8.50
2023-03-22T09:54:21.668Z,7.90
2023-03-22T09:57:15.883Z,7.20
2023-03-22T10:00:11.865Z,8.50
2023-03-22T10:03:00.836Z,9.40
2023-03-22T10:05:52.940Z,9.40
2023-03-22T10:08:38.504Z,9.10
2023-03-22T10:11:20.637Z,8.30
2023-03-22T10:14:25.481Z,6.70
2023-03-22T10:16:56.642Z,6.90
2023-03-22T10:19:31.785Z,7.70
2023-03-22T10:22:02.396Z,9.40
2023-03-22T10:24:33.726Z,12.30
2023-03-22T10:27:01.603Z,8.50
2023-03-22T10:29:39.823Z,8.80
2023-03-22T10:32:21.107Z,8.40
2023-03-22T10:34:47.980Z,8.70
2023-03-22T10:37:22.602Z,10.80
2023-03-22T10:39:53.966Z,10.10
2023-03-22T10:42:28.153Z,8.60
2023-03-22T10:45:14.790Z,9.10
2023-03-22T10:47:42.642Z,9.70
2023-03-22T10:50:21.422Z,9.30
2023-03-22T10:52:58.041Z,10.20
2023-03-22T10:55:26.112Z,11.00
2023-03-22T10:58:16.060Z,9.70
2023-03-22T11:03:37.913Z,10.30
2023-03-22T11:06:23.524Z,10.30
2023-03-22T11:08:57.502Z,9.60
2023-03-22T11:11:24.421Z,11.40
2023-03-22T11:13:55.817Z,8.80
2023-03-22T11:16:23.644Z,10.50
2023-03-22T11:18:51.044Z,11.10
2023-03-22T11:21:19.912Z,21.20
2023-03-22T11:24:00.864Z,10.40
2023-03-22T11:26:31.808Z,10.40
2023-03-22T11:29:16.707Z,9.30
2023-03-22T11:32:00.568Z,9.70
2023-03-22T11:34:31.000Z,9.20
2023-03-22T11:37:01.626Z,9.40
2023-03-22T11:39:29.860Z,9.30
2023-03-22T11:42:04.159Z,9.70
2023-03-22T11:44:38.376Z,11.00
2023-03-22T11:47:08.504Z,12.90
2023-03-22T11:49:45.653Z,10.70
2023-03-22T11:52:18.472Z,10.90
2023-03-22T11:54:47.101Z,9.90
2023-03-22T11:57:18.713Z,9.40
2023-03-22T12:00:12.041Z,10.90
2023-03-22T12:02:46.701Z,10.20
2023-03-22T12:05:24.537Z,10.00
2023-03-22T12:08:03.835Z,12.30
2023-03-22T12:10:42.829Z,11.70
2023-03-22T12:13:41.956Z,7.90
2023-03-22T12:16:15.112Z,9.90
2023-03-22T12:18:51.511Z,10.50
2023-03-22T12:21:18.439Z,10.50
2023-03-22T12:23:45.964Z,9.80
2023-03-22T12:26:20.735Z,9.90
2023-03-22T12:28:59.735Z,10.40
2023-03-22T12:31:38.297Z,8.60
2023-03-22T12:34:14.662Z,19.30
2023-03-22T12:36:47.170Z,19.90
2023-03-22T12:39:35.065Z,10.10
2023-03-22T12:42:10.997Z,15.10
2023-03-22T12:44:43.282Z,14.70
2023-03-22T12:47:20.830Z,10.60
2023-03-22T12:50:14.245Z,10.30
2023-03-22T12:52:46.115Z,10.10
2023-03-22T12:55:30.973Z,10.40
2023-03-22T12:57:59.263Z,11.90
2023-03-22T13:00:33.420Z,11.80
2023-03-22T13:03:18.953Z,11.90
2023-03-22T13:05:48.645Z,17.80
2023-03-22T13:08:21.862Z,17.30
2023-03-22T13:10:59.166Z,15.30
2023-03-22T13:13:28.002Z,12.00
2023-03-22T13:15:57.953Z,17.60
2023-03-22T13:21:16.709Z,13.30
2023-03-22T13:24:21.157Z,11.60
2023-03-22T13:26:55.608Z,12.20
2023-03-22T13:29:25.866Z,11.40
2023-03-22T13:31:59.225Z,11.60
2023-03-22T13:34:50.734Z,13.30
2023-03-22T13:37:31.855Z,12.20
2023-03-22T13:40:02.311Z,12.20
2023-03-22T13:42:38.295Z,16.20
2023-03-22T13:45:09.537Z,16.60
2023-03-22T13:47:49.776Z,13.10
2023-03-22T13:50:29.763Z,30.30
2023-03-22T13:53:05.096Z,39.10
2023-03-22T13:55:58.871Z,35.30
2023-03-22T13:58:46.814Z,27.80
2023-03-22T14:01:36.599Z,14.60
2023-03-22T14:04:12.563Z,15.60
2023-03-22T14:06:57.578Z,13.20
2023-03-22T14:09:31.467Z,11.90
2023-03-22T14:12:28.671Z,13.60
2023-03-22T14:15:01.047Z,11.90
2023-03-22T14:17:50.715Z,14.00
2023-03-22T14:20:21.170Z,12.60
